sensor_id;sensor_type;location;lat;lon;timestamp;temperature;humidity
14709;DHT22;7445;50.774;4.944;2023-06-22T06:51:51;21.10;99.90
14709;DHT22;7445;50.774;4.944;2023-06-22T06:54:18;21.10;99.90
14709;DHT22;7445;50.774;4.944;2023-06-22T06:56:46;21.20;99.90
14709;DHT22;7445;50.774;4.944;2023-06-22T06:59:16;21.20;99.90
14709;DHT22;7445;50.774;4.944;2023-06-22T07:01:42;21.10;99.90
14709;DHT22;7445;50.774;4.944;2023-06-22T07:04:10;21.00;99.90
14709;DHT22;7445;50.774;4.944;2023-06-22T07:06:36;20.90;99.90
14709;DHT22;7445;50.774;4.944;2023-06-22T07:09:01;20.90;99.90
14709;DHT22;7445;50.774;4.944;2023-06-22T07:11:28;20.90;99.90
14709;DHT22;7445;50.774;4.944;2023-06-22T07:13:54;20.90;99.90
14709;DHT22;7445;50.774;4.944;2023-06-22T07:16:20;20.90;99.90
14709;DHT22;7445;50.774;4.944;2023-06-22T07:18:45;20.90;99.90
14709;DHT22;7445;50.774;4.944;2023-06-22T07:21:11;21.00;99.90
14709;DHT22;7445;50.774;4.944;2023-06-22T07:23:36;21.10;99.90
14709;DHT22;7445;50.774;4.944;2023-06-22T07:26:02;21.20;99.90
14709;DHT22;7445;50.774;4.944;2023-06-22T07:28:28;21.30;99.90
14709;DHT22;7445;50.774;4.944;2023-06-22T07:30:56;21.30;99.90
14709;DHT22;7445;50.774;4.944;2023-06-22T07:33:22;21.40;99.90
14709;DHT22;7445;50.774;4.944;2023-06-22T07:35:48;21.50;99.90
14709;DHT22;7445;50.774;4.944;2023-06-22T07:38:14;21.60;99.90
14709;DHT22;7445;50.774;4.944;2023-06-22T07:40:40;21.70;99.90
14709;DHT22;7445;50.774;4.944;2023-06-22T07:43:07;21.80;99.90
14709;DHT22;7445;50.774;4.944;2023-06-22T07:45:32;21.80;99.90
14709;DHT22;7445;50.774;4.944;2023-06-22T07:48:00;22.00;99.90
14709;DHT22;7445;50.774;4.944;2023-06-22T07:50:26;22.00;99.90
14709;DHT22;7445;50.774;4.944;2023-06-22T07:52:52;22.10;99.90
14709;DHT22;7445;50.774;4.944;2023-06-22T07:55:18;22.20;99.90
14709;DHT22;7445;50.774;4.944;2023-06-22T07:57:44;22.10;99.90
14709;DHT22;7445;50.774;4.944;2023-06-22T08:00:10;22.20;99.90
14709;DHT22;7445;50.774;4.944;2023-06-22T08:02:41;22.20;99.90
14709;DHT22;7445;50.774;4.944;2023-06-22T08:05:08;22.00;99.90
14709;DHT22;7445;50.774;4.944;2023-06-22T08:07:35;22.00;99.90
14709;DHT22;7445;50.774;4.944;2023-06-22T08:10:03;22.20;99.90
14709;DHT22;7445;50.774;4.944;2023-06-22T08:12:29;22.20;99.90
14709;DHT22;7445;50.774;4.944;2023-06-22T08:14:54;22.50;99.90
14709;DHT22;7445;50.774;4.944;2023-06-22T08:17:20;22.70;99.90
14709;DHT22;7445;50.774;4.944;2023-06-22T08:19:46;22.70;99.90
14709;DHT22;7445;50.774;4.944;2023-06-22T08:22:11;22.70;99.90
14709;DHT22;7445;50.774;4.944;2023-06-22T08:24:37;22.50;99.90
14709;DHT22;7445;50.774;4.944;2023-06-22T08:27:03;22.60;99.90
14709;DHT22;7445;50.774;4.944;2023-06-22T08:29:28;22.80;99.90
14709;DHT22;7445;50.774;4.944;2023-06-22T08:31:54;22.90;99.30
14709;DHT22;7445;50.774;4.944;2023-06-22T08:34:19;23.00;96.90
14709;DHT22;7445;50.774;4.944;2023-06-22T08:36:48;23.10;97.80
14709;DHT22;7445;50.774;4.944;2023-06-22T08:39:17;23.30;96.70
14709;DHT22;7445;50.774;4.944;2023-06-22T08:41:42;23.10;97.60
14709;DHT22;7445;50.774;4.944;2023-06-22T08:44:08;23.20;94.20
14709;DHT22;7445;50.774;4.944;2023-06-22T08:46:34;23.10;97.00
14709;DHT22;7445;50.774;4.944;2023-06-22T08:49:00;23.00;99.40
14709;DHT22;7445;50.774;4.944;2023-06-22T08:51:26;23.00;98.80
14709;DHT22;7445;50.774;4.944;2023-06-22T08:53:52;23.00;98.70
14709;DHT22;7445;50.774;4.944;2023-06-22T08:56:17;22.80;99.90
14709;DHT22;7445;50.774;4.944;2023-06-22T08:58:43;22.80;99.90
14709;DHT22;7445;50.774;4.944;2023-06-22T09:01:09;22.80;99.90
14709;DHT22;7445;50.774;4.944;2023-06-22T09:03:34;22.70;99.90
14709;DHT22;7445;50.774;4.944;2023-06-22T09:06:02;22.70;99.90
14709;DHT22;7445;50.774;4.944;2023-06-22T09:08:27;22.70;99.90
14709;DHT22;7445;50.774;4.944;2023-06-22T09:10:53;22.60;99.90
14709;DHT22;7445;50.774;4.944;2023-06-22T09:13:19;22.60;99.90
14709;DHT22;7445;50.774;4.944;2023-06-22T09:15:44;22.70;99.90
14709;DHT22;7445;50.774;4.944;2023-06-22T09:18:10;22.70;99.90
14709;DHT22;7445;50.774;4.944;2023-06-22T09:20:37;22.60;99.90
14709;DHT22;7445;50.774;4.944;2023-06-22T09:23:02;22.60;99.90
14709;DHT22;7445;50.774;4.944;2023-06-22T09:25:28;22.40;99.90
14709;DHT22;7445;50.774;4.944;2023-06-22T09:27:54;22.40;99.90
14709;DHT22;7445;50.774;4.944;2023-06-22T09:30:20;22.50;99.90
14709;DHT22;7445;50.774;4.944;2023-06-22T09:32:45;22.50;99.90
14709;DHT22;7445;50.774;4.944;2023-06-22T09:35:11;22.50;99.90
14709;DHT22;7445;50.774;4.944;2023-06-22T09:37:40;22.60;99.90
14709;DHT22;7445;50.774;4.944;2023-06-22T09:40:06;22.60;99.90
14709;DHT22;7445;50.774;4.944;2023-06-22T09:42:36;22.60;99.90
14709;DHT22;7445;50.774;4.944;2023-06-22T09:45:02;22.60;99.90
14709;DHT22;7445;50.774;4.944;2023-06-22T09:47:29;22.60;99.90
14709;DHT22;7445;50.774;4.944;2023-06-22T09:49:54;22.60;99.90
14709;DHT22;7445;50.774;4.944;2023-06-22T09:52:21;22.50;99.90
14709;DHT22;7445;50.774;4.944;2023-06-22T09:54:47;22.40;99.90
14709;DHT22;7445;50.774;4.944;2023-06-22T09:57:12;22.30;99.90
14709;DHT22;7445;50.774;4.944;2023-06-22T09:59:38;22.20;99.90
14709;DHT22;7445;50.774;4.944;2023-06-22T10:02:07;22.10;99.90
14709;DHT22;7445;50.774;4.944;2023-06-22T10:04:36;22.00;99.90
14709;DHT22;7445;50.774;4.944;2023-06-22T10:07:02;21.80;99.90
14709;DHT22;7445;50.774;4.944;2023-06-22T10:09:28;21.90;99.90
14709;DHT22;7445;50.774;4.944;2023-06-22T10:11:54;21.80;99.90
14709;DHT22;7445;50.774;4.944;2023-06-22T10:14:20;21.60;99.90
14709;DHT22;7445;50.774;4.944;2023-06-22T10:16:45;21.70;99.90
14709;DHT22;7445;50.774;4.944;2023-06-22T10:19:11;21.60;99.90
14709;DHT22;7445;50.774;4.944;2023-06-22T10:21:36;21.60;99.90
14709;DHT22;7445;50.774;4.944;2023-06-22T10:24:02;21.50;99.90
14709;DHT22;7445;50.774;4.944;2023-06-22T10:26:34;21.50;99.90
14709;DHT22;7445;50.774;4.944;2023-06-22T10:29:03;21.30;99.90
14709;DHT22;7445;50.774;4.944;2023-06-22T10:31:29;21.20;99.90
14709;DHT22;7445;50.774;4.944;2023-06-22T10:33:55;21.00;99.90
14709;DHT22;7445;50.774;4.944;2023-06-22T10:36:21;20.80;99.90
14709;DHT22;7445;50.774;4.944;2023-06-22T10:38:49;20.60;99.90
14709;DHT22;7445;50.774;4.944;2023-06-22T10:41:15;20.50;99.90
14709;DHT22;7445;50.774;4.944;2023-06-22T10:43:41;20.30;99.90
14709;DHT22;7445;50.774;4.944;2023-06-22T10:46:07;20.10;99.90
14709;DHT22;7445;50.774;4.944;2023-06-22T10:48:33;20.00;99.90
14709;DHT22;7445;50.774;4.944;2023-06-22T10:50:58;19.80;99.90
14709;DHT22;7445;50.774;4.944;2023-06-22T10:53:24;19.60;99.90
14709;DHT22;7445;50.774;4.944;2023-06-22T10:55:50;19.60;99.90
14709;DHT22;7445;50.774;4.944;2023-06-22T10:58:18;19.50;99.90
14709;DHT22;7445;50.774;4.944;2023-06-22T11:00:44;19.60;99.90
14709;DHT22;7445;50.774;4.944;2023-06-22T11:03:10;19.80;99.90
14709;DHT22;7445;50.774;4.944;2023-06-22T11:05:35;20.10;99.90
14709;DHT22;7445;50.774;4.944;2023-06-22T11:08:01;20.20;99.90
14709;DHT22;7445;50.774;4.944;2023-06-22T11:10:26;20.40;99.90
14709;DHT22;7445;50.774;4.944;2023-06-22T11:12:52;20.60;99.90
14709;DHT22;7445;50.774;4.944;2023-06-22T11:15:18;20.50;99.90
14709;DHT22;7445;50.774;4.944;2023-06-22T11:17:44;20.50;99.90
14709;DHT22;7445;50.774;4.944;2023-06-22T11:20:10;20.30;99.90
14709;DHT22;7445;50.774;4.944;2023-06-22T11:22:37;20.30;99.90
14709;DHT22;7445;50.774;4.944;2023-06-22T11:25:03;20.20;99.90
14709;DHT22;7445;50.774;4.944;2023-06-22T11:27:29;20.10;99.90
14709;DHT22;7445;50.774;4.944;2023-06-22T11:29:55;20.10;99.90
14709;DHT22;7445;50.774;4.944;2023-06-22T11:32:20;20.00;99.90
14709;DHT22;7445;50.774;4.944;2023-06-22T11:34:47;19.80;99.90
14709;DHT22;7445;50.774;4.944;2023-06-22T11:37:13;19.80;99.90
14709;DHT22;7445;50.774;4.944;2023-06-22T11:39:38;19.70;99.90
14709;DHT22;7445;50.774;4.944;2023-06-22T11:42:04;19.60;99.90
14709;DHT22;7445;50.774;4.944;2023-06-22T11:44:30;19.60;99.90
14709;DHT22;7445;50.774;4.944;2023-06-22T11:46:55;19.60;99.90
14709;DHT22;7445;50.774;4.944;2023-06-22T11:49:21;19.50;99.90
14709;DHT22;7445;50.774;4.944;2023-06-22T11:51:46;19.40;99.90
14709;DHT22;7445;50.774;4.944;2023-06-22T11:54:12;19.30;99.90
14709;DHT22;7445;50.774;4.944;2023-06-22T11:56:38;19.30;99.90
14709;DHT22;7445;50.774;4.944;2023-06-22T11:59:03;19.30;99.90
14709;DHT22;7445;50.774;4.944;2023-06-22T12:01:29;19.30;99.90
14709;DHT22;7445;50.774;4.944;2023-06-22T12:03:54;19.30;99.90
14709;DHT22;7445;50.774;4.944;2023-06-22T12:06:20;19.40;99.90
14709;DHT22;7445;50.774;4.944;2023-06-22T12:08:45;19.40;99.90
14709;DHT22;7445;50.774;4.944;2023-06-22T12:11:11;19.40;99.90
14709;DHT22;7445;50.774;4.944;2023-06-22T12:13:37;19.40;99.90
14709;DHT22;7445;50.774;4.944;2023-06-22T12:16:02;19.30;99.90
14709;DHT22;7445;50.774;4.944;2023-06-22T12:18:28;19.20;99.90
14709;DHT22;7445;50.774;4.944;2023-06-22T12:20:53;19.20;99.90
14709;DHT22;7445;50.774;4.944;2023-06-22T12:23:19;19.20;99.90
14709;DHT22;7445;50.774;4.944;2023-06-22T12:25:45;19.20;99.90
14709;DHT22;7445;50.774;4.944;2023-06-22T12:28:11;19.20;99.90
14709;DHT22;7445;50.774;4.944;2023-06-22T12:30:36;19.20;99.90
14709;DHT22;7445;50.774;4.944;2023-06-22T12:33:02;19.20;99.90
14709;DHT22;7445;50.774;4.944;2023-06-22T12:35:28;19.20;99.90
14709;DHT22;7445;50.774;4.944;2023-06-22T12:37:53;19.20;99.90
14709;DHT22;7445;50.774;4.944;2023-06-22T12:40:19;19.10;99.90
14709;DHT22;7445;50.774;4.944;2023-06-22T12:42:45;19.10;99.90
14709;DHT22;7445;50.774;4.944;2023-06-22T12:45:11;19.00;99.90
14709;DHT22;7445;50.774;4.944;2023-06-22T12:47:36;19.00;99.90
14709;DHT22;7445;50.774;4.944;2023-06-22T12:50:02;19.10;99.90
14709;DHT22;7445;50.774;4.944;2023-06-22T12:52:30;18.90;99.90
14709;DHT22;7445;50.774;4.944;2023-06-22T12:54:57;18.90;99.90
14709;DHT22;7445;50.774;4.944;2023-06-22T12:57:23;18.80;99.90
14709;DHT22;7445;50.774;4.944;2023-06-22T12:59:49;18.90;99.90
14709;DHT22;7445;50.774;4.944;2023-06-22T13:02:14;18.80;99.90
14709;DHT22;7445;50.774;4.944;2023-06-22T13:04:40;18.80;99.90
14709;DHT22;7445;50.774;4.944;2023-06-22T13:07:05;18.70;99.90
14709;DHT22;7445;50.774;4.944;2023-06-22T13:09:31;18.70;99.90
14709;DHT22;7445;50.774;4.944;2023-06-22T13:11:57;18.70;99.90
14709;DHT22;7445;50.774;4.944;2023-06-22T13:14:22;18.60;99.90
14709;DHT22;7445;50.774;4.944;2023-06-22T13:16:48;18.60;99.90
14709;DHT22;7445;50.774;4.944;2023-06-22T13:19:13;18.60;99.90
14709;DHT22;7445;50.774;4.944;2023-06-22T13:21:40;18.60;99.90
14709;DHT22;7445;50.774;4.944;2023-06-22T13:24:06;18.60;99.90
14709;DHT22;7445;50.774;4.944;2023-06-22T13:26:31;18.70;99.90
14709;DHT22;7445;50.774;4.944;2023-06-22T13:28:57;18.70;99.90
14709;DHT22;7445;50.774;4.944;2023-06-22T13:31:23;18.70;99.90
14709;DHT22;7445;50.774;4.944;2023-06-22T13:33:49;18.80;99.90
14709;DHT22;7445;50.774;4.944;2023-06-22T13:36:17;18.80;99.90
14709;DHT22;7445;50.774;4.944;2023-06-22T13:38:43;18.80;99.90
14709;DHT22;7445;50.774;4.944;2023-06-22T13:41:09;18.70;99.90
14709;DHT22;7445;50.774;4.944;2023-06-22T13:43:34;18.70;99.90
14709;DHT22;7445;50.774;4.944;2023-06-22T13:46:00;18.70;99.90
14709;DHT22;7445;50.774;4.944;2023-06-22T13:48:25;18.70;99.90
14709;DHT22;7445;50.774;4.944;2023-06-22T13:50:52;18.80;99.90
14709;DHT22;7445;50.774;4.944;2023-06-22T13:53:18;18.90;99.90
14709;DHT22;7445;50.774;4.944;2023-06-22T13:55:43;18.90;99.90
14709;DHT22;7445;50.774;4.944;2023-06-22T13:58:09;18.90;99.90
14709;DHT22;7445;50.774;4.944;2023-06-22T14:00:34;18.90;99.90
14709;DHT22;7445;50.774;4.944;2023-06-22T14:03:00;18.80;99.90
14709;DHT22;7445;50.774;4.944;2023-06-22T14:05:26;18.90;99.90
14709;DHT22;7445;50.774;4.944;2023-06-22T14:07:51;18.80;99.90
14709;DHT22;7445;50.774;4.944;2023-06-22T14:10:17;18.90;99.90
14709;DHT22;7445;50.774;4.944;2023-06-22T14:12:43;18.90;99.90
14709;DHT22;7445;50.774;4.944;2023-06-22T14:15:09;18.90;99.90
14709;DHT22;7445;50.774;4.944;2023-06-22T14:17:34;18.90;99.90
14709;DHT22;7445;50.774;4.944;2023-06-22T14:20:00;18.90;99.90
14709;DHT22;7445;50.774;4.944;2023-06-22T14:22:25;18.90;99.90
14709;DHT22;7445;50.774;4.944;2023-06-22T14:24:54;18.80;99.90
14709;DHT22;7445;50.774;4.944;2023-06-22T14:27:21;18.80;99.90
14709;DHT22;7445;50.774;4.944;2023-06-22T14:29:47;18.70;99.90
14709;DHT22;7445;50.774;4.944;2023-06-22T14:32:12;18.70;99.90
14709;DHT22;7445;50.774;4.944;2023-06-22T14:34:39;18.70;99.90
14709;DHT22;7445;50.774;4.944;2023-06-22T14:37:07;18.70;99.90
14709;DHT22;7445;50.774;4.944;2023-06-22T14:39:35;18.80;99.90
14709;DHT22;7445;50.774;4.944;2023-06-22T14:42:01;18.80;99.90
14709;DHT22;7445;50.774;4.944;2023-06-22T14:44:30;18.80;99.90
14709;DHT22;7445;50.774;4.944;2023-06-22T14:46:58;18.70;99.90
14709;DHT22;7445;50.774;4.944;2023-06-22T14:49:24;18.70;99.90
14709;DHT22;7445;50.774;4.944;2023-06-22T14:51:50;18.70;99.90
14709;DHT22;7445;50.774;4.944;2023-06-22T14:54:15;18.60;99.90
14709;DHT22;7445;50.774;4.944;2023-06-22T14:56:41;18.70;99.90
14709;DHT22;7445;50.774;4.944;2023-06-22T14:59:06;18.60;99.90
14709;DHT22;7445;50.774;4.944;2023-06-22T15:01:32;18.70;99.90
14709;DHT22;7445;50.774;4.944;2023-06-22T15:03:58;18.70;99.90
14709;DHT22;7445;50.774;4.944;2023-06-22T15:06:23;18.70;99.90
14709;DHT22;7445;50.774;4.944;2023-06-22T15:08:49;18.70;99.90
14709;DHT22;7445;50.774;4.944;2023-06-22T15:11:14;18.80;99.90
14709;DHT22;7445;50.774;4.944;2023-06-22T15:13:41;18.70;99.90
14709;DHT22;7445;50.774;4.944;2023-06-22T15:16:07;18.70;99.90
14709;DHT22;7445;50.774;4.944;2023-06-22T15:18:34;18.60;99.90
14709;DHT22;7445;50.774;4.944;2023-06-22T15:21:01;18.60;99.90
14709;DHT22;7445;50.774;4.944;2023-06-22T15:23:28;18.60;99.90
14709;DHT22;7445;50.774;4.944;2023-06-22T15:25:58;18.70;99.90
14709;DHT22;7445;50.774;4.944;2023-06-22T15:28:24;18.70;99.90
14709;DHT22;7445;50.774;4.944;2023-06-22T15:30:50;18.80;99.90
14709;DHT22;7445;50.774;4.944;2023-06-22T15:33:17;18.70;99.90
14709;DHT22;7445;50.774;4.944;2023-06-22T15:35:43;18.70;99.90
14709;DHT22;7445;50.774;4.944;2023-06-22T15:38:09;18.70;99.90
14709;DHT22;7445;50.774;4.944;2023-06-22T15:40:35;18.70;99.90
14709;DHT22;7445;50.774;4.944;2023-06-22T15:43:00;18.70;99.90
14709;DHT22;7445;50.774;4.944;2023-06-22T15:45:26;18.70;99.90
14709;DHT22;7445;50.774;4.944;2023-06-22T15:47:52;18.60;99.90
14709;DHT22;7445;50.774;4.944;2023-06-22T15:50:17;18.70;99.90
14709;DHT22;7445;50.774;4.944;2023-06-22T15:52:43;18.70;99.90
14709;DHT22;7445;50.774;4.944;2023-06-22T15:55:14;18.60;99.90
14709;DHT22;7445;50.774;4.944;2023-06-22T15:57:39;18.70;99.90
14709;DHT22;7445;50.774;4.944;2023-06-22T16:00:07;18.70;99.90
14709;DHT22;7445;50.774;4.944;2023-06-22T16:02:33;18.70;99.90
14709;DHT22;7445;50.774;4.944;2023-06-22T16:04:59;18.80;99.90
14709;DHT22;7445;50.774;4.944;2023-06-22T16:07:26;18.80;99.90
14709;DHT22;7445;50.774;4.944;2023-06-22T16:09:52;18.90;99.90
14709;DHT22;7445;50.774;4.944;2023-06-22T16:12:18;18.90;99.90
14709;DHT22;7445;50.774;4.944;2023-06-22T16:14:43;18.90;99.90
14709;DHT22;7445;50.774;4.944;2023-06-22T16:17:09;18.80;99.90
14709;DHT22;7445;50.774;4.944;2023-06-22T16:19:35;18.80;99.90
14709;DHT22;7445;50.774;4.944;2023-06-22T16:22:00;18.80;99.90
14709;DHT22;7445;50.774;4.944;2023-06-22T16:24:26;18.70;99.90
14709;DHT22;7445;50.774;4.944;2023-06-22T16:26:51;18.70;99.90
14709;DHT22;7445;50.774;4.944;2023-06-22T16:29:17;18.60;99.90
14709;DHT22;7445;50.774;4.944;2023-06-22T16:31:43;18.60;99.90
14709;DHT22;7445;50.774;4.944;2023-06-22T16:34:08;18.60;99.90
14709;DHT22;7445;50.774;4.944;2023-06-22T16:36:34;18.60;99.90
14709;DHT22;7445;50.774;4.944;2023-06-22T16:38:59;18.60;99.90
14709;DHT22;7445;50.774;4.944;2023-06-22T16:41:25;18.60;99.90
14709;DHT22;7445;50.774;4.944;2023-06-22T16:43:52;18.60;99.90
14709;DHT22;7445;50.774;4.944;2023-06-22T16:46:17;18.70;99.90
14709;DHT22;7445;50.774;4.944;2023-06-22T16:48:49;18.70;99.90
14709;DHT22;7445;50.774;4.944;2023-06-22T16:51:17;18.70;99.90
14709;DHT22;7445;50.774;4.944;2023-06-22T16:53:43;18.80;99.90
14709;DHT22;7445;50.774;4.944;2023-06-22T16:56:09;18.80;99.90
14709;DHT22;7445;50.774;4.944;2023-06-22T16:58:40;18.90;99.90
14709;DHT22;7445;50.774;4.944;2023-06-22T17:01:07;19.00;99.90
14709;DHT22;7445;50.774;4.944;2023-06-22T17:03:43;18.90;99.90
14709;DHT22;7445;50.774;4.944;2023-06-22T17:06:12;19.00;99.90
14709;DHT22;7445;50.774;4.944;2023-06-22T17:08:40;19.00;99.90
14709;DHT22;7445;50.774;4.944;2023-06-22T17:11:28;19.00;99.90
14709;DHT22;7445;50.774;4.944;2023-06-22T17:14:11;19.00;99.90
14709;DHT22;7445;50.774;4.944;2023-06-22T17:16:37;19.10;99.90
14709;DHT22;7445;50.774;4.944;2023-06-22T17:19:06;19.00;99.90
14709;DHT22;7445;50.774;4.944;2023-06-22T17:21:32;19.10;99.90
14709;DHT22;7445;50.774;4.944;2023-06-22T17:24:01;19.10;99.90
14709;DHT22;7445;50.774;4.944;2023-06-22T17:26:26;19.20;99.90
14709;DHT22;7445;50.774;4.944;2023-06-22T17:28:55;19.20;99.90
14709;DHT22;7445;50.774;4.944;2023-06-22T17:31:41;19.30;99.90
14709;DHT22;7445;50.774;4.944;2023-06-22T17:34:10;19.20;99.90
14709;DHT22;7445;50.774;4.944;2023-06-22T17:36:56;19.20;99.90
14709;DHT22;7445;50.774;4.944;2023-06-22T17:39:30;19.20;99.90
14709;DHT22;7445;50.774;4.944;2023-06-22T17:41:56;19.30;99.90
14709;DHT22;7445;50.774;4.944;2023-06-22T17:44:26;19.20;99.90
14709;DHT22;7445;50.774;4.944;2023-06-22T17:46:56;19.30;99.90
14709;DHT22;7445;50.774;4.944;2023-06-22T17:49:27;19.40;99.90
14709;DHT22;7445;50.774;4.944;2023-06-22T17:51:53;19.50;99.90
14709;DHT22;7445;50.774;4.944;2023-06-22T17:54:19;19.60;99.90
14709;DHT22;7445;50.774;4.944;2023-06-22T17:56:51;19.60;99.90
14709;DHT22;7445;50.774;4.944;2023-06-22T17:59:20;19.70;99.90
14709;DHT22;7445;50.774;4.944;2023-06-22T18:01:48;19.70;99.90
14709;DHT22;7445;50.774;4.944;2023-06-22T18:04:15;19.60;99.90
14709;DHT22;7445;50.774;4.944;2023-06-22T18:06:42;19.70;99.90
14709;DHT22;7445;50.774;4.944;2023-06-22T18:09:09;19.70;99.90
14709;DHT22;7445;50.774;4.944;2023-06-22T18:11:45;19.70;99.90
14709;DHT22;7445;50.774;4.944;2023-06-22T18:14:15;19.70;99.90
14709;DHT22;7445;50.774;4.944;2023-06-22T18:16:44;19.60;99.90
14709;DHT22;7445;50.774;4.944;2023-06-22T18:19:10;19.60;99.90
14709;DHT22;7445;50.774;4.944;2023-06-22T18:21:37;19.60;99.90
14709;DHT22;7445;50.774;4.944;2023-06-22T18:24:05;19.50;99.90
14709;DHT22;7445;50.774;4.944;2023-06-22T18:26:32;19.40;99.90
14709;DHT22;7445;50.774;4.944;2023-06-22T18:28:57;19.40;99.90
14709;DHT22;7445;50.774;4.944;2023-06-22T18:31:25;19.40;99.90
14709;DHT22;7445;50.774;4.944;2023-06-22T18:33:53;19.40;99.90
14709;DHT22;7445;50.774;4.944;2023-06-22T18:36:43;19.40;99.90
14709;DHT22;7445;50.774;4.944;2023-06-22T18:39:11;19.40;99.90
14709;DHT22;7445;50.774;4.944;2023-06-22T18:41:39;19.40;99.90
14709;DHT22;7445;50.774;4.944;2023-06-22T18:44:24;19.40;99.90
14709;DHT22;7445;50.774;4.944;2023-06-22T18:46:58;19.40;99.90
14709;DHT22;7445;50.774;4.944;2023-06-22T18:49:30;19.40;99.90
14709;DHT22;7445;50.774;4.944;2023-06-22T18:52:14;19.30;99.90
14709;DHT22;7445;50.774;4.944;2023-06-22T18:54:49;19.30;99.90
14709;DHT22;7445;50.774;4.944;2023-06-22T18:57:28;19.30;99.90
14709;DHT22;7445;50.774;4.944;2023-06-22T19:07:59;19.30;99.90
14709;DHT22;7445;50.774;4.944;2023-06-22T19:10:28;19.20;99.90
14709;DHT22;7445;50.774;4.944;2023-06-22T19:16:00;19.30;99.90
14709;DHT22;7445;50.774;4.944;2023-06-22T19:21:03;19.20;99.90
14709;DHT22;7445;50.774;4.944;2023-06-22T19:25:59;19.10;99.90
14709;DHT22;7445;50.774;4.944;2023-06-22T19:28:30;19.20;99.90
14709;DHT22;7445;50.774;4.944;2023-06-22T19:31:00;19.20;99.90
14709;DHT22;7445;50.774;4.944;2023-06-22T19:33:26;19.20;99.90
14709;DHT22;7445;50.774;4.944;2023-06-22T19:35:59;19.20;99.90
14709;DHT22;7445;50.774;4.944;2023-06-22T19:38:26;19.10;99.90
14709;DHT22;7445;50.774;4.944;2023-06-22T19:40:53;19.20;99.90
14709;DHT22;7445;50.774;4.944;2023-06-22T19:43:19;19.20;99.90
14709;DHT22;7445;50.774;4.944;2023-06-22T19:45:45;19.20;99.90
14709;DHT22;7445;50.774;4.944;2023-06-22T19:48:12;19.20;99.90
14709;DHT22;7445;50.774;4.944;2023-06-22T19:50:41;19.20;99.90
14709;DHT22;7445;50.774;4.944;2023-06-22T19:53:15;19.20;99.90
14709;DHT22;7445;50.774;4.944;2023-06-22T19:55:43;19.20;99.90
14709;DHT22;7445;50.774;4.944;2023-06-22T19:58:10;19.10;99.90
14709;DHT22;7445;50.774;4.944;2023-06-22T20:00:36;19.20;99.90
14709;DHT22;7445;50.774;4.944;2023-06-22T20:03:02;19.20;99.90
14709;DHT22;7445;50.774;4.944;2023-06-22T20:05:32;19.20;99.90
14709;DHT22;7445;50.774;4.944;2023-06-22T20:08:04;19.20;99.90
14709;DHT22;7445;50.774;4.944;2023-06-22T20:10:36;19.20;99.90
14709;DHT22;7445;50.774;4.944;2023-06-22T20:13:30;19.20;99.90
14709;DHT22;7445;50.774;4.944;2023-06-22T20:15:55;19.20;99.90
14709;DHT22;7445;50.774;4.944;2023-06-22T20:18:22;19.30;99.90
14709;DHT22;7445;50.774;4.944;2023-06-22T20:20:48;19.20;99.90
14709;DHT22;7445;50.774;4.944;2023-06-22T20:23:21;19.20;99.90
14709;DHT22;7445;50.774;4.944;2023-06-22T20:25:47;19.20;99.90
14709;DHT22;7445;50.774;4.944;2023-06-22T20:28:14;19.20;99.90
14709;DHT22;7445;50.774;4.944;2023-06-22T20:33:25;19.30;99.90
14709;DHT22;7445;50.774;4.944;2023-06-22T20:35:50;19.20;99.90
14709;DHT22;7445;50.774;4.944;2023-06-22T20:38:16;19.20;99.90
14709;DHT22;7445;50.774;4.944;2023-06-22T20:40:42;19.30;99.90
14709;DHT22;7445;50.774;4.944;2023-06-22T20:43:07;19.30;99.90
14709;DHT22;7445;50.774;4.944;2023-06-22T20:45:33;19.20;99.90
14709;DHT22;7445;50.774;4.944;2023-06-22T20:47:59;19.20;99.90
14709;DHT22;7445;50.774;4.944;2023-06-22T20:50:28;19.30;99.90
14709;DHT22;7445;50.774;4.944;2023-06-22T20:53:05;19.30;99.90
14709;DHT22;7445;50.774;4.944;2023-06-22T20:55:32;19.20;99.90
14709;DHT22;7445;50.774;4.944;2023-06-22T20:58:05;19.20;99.90
14709;DHT22;7445;50.774;4.944;2023-06-22T21:00:32;19.30;99.90
14709;DHT22;7445;50.774;4.944;2023-06-22T21:03:09;19.20;99.90
14709;DHT22;7445;50.774;4.944;2023-06-22T21:05:38;19.10;99.90
14709;DHT22;7445;50.774;4.944;2023-06-22T21:08:04;19.10;99.90
14709;DHT22;7445;50.774;4.944;2023-06-22T21:10:30;19.20;99.90
14709;DHT22;7445;50.774;4.944;2023-06-22T21:12:56;19.20;99.90
14709;DHT22;7445;50.774;4.944;2023-06-22T21:15:21;19.20;99.90
14709;DHT22;7445;50.774;4.944;2023-06-22T21:17:47;19.20;99.90
14709;DHT22;7445;50.774;4.944;2023-06-22T21:20:14;19.10;99.90
14709;DHT22;7445;50.774;4.944;2023-06-22T21:22:40;19.20;99.90
14709;DHT22;7445;50.774;4.944;2023-06-22T21:25:08;19.20;99.90
14709;DHT22;7445;50.774;4.944;2023-06-22T21:27:35;19.20;99.90
14709;DHT22;7445;50.774;4.944;2023-06-22T21:30:01;19.20;99.90
14709;DHT22;7445;50.774;4.944;2023-06-22T21:32:27;19.20;99.90
14709;DHT22;7445;50.774;4.944;2023-06-22T21:34:54;19.20;99.90
14709;DHT22;7445;50.774;4.944;2023-06-22T21:37:19;19.20;99.90
14709;DHT22;7445;50.774;4.944;2023-06-22T21:39:45;19.20;99.90
14709;DHT22;7445;50.774;4.944;2023-06-22T21:42:11;19.20;99.90
14709;DHT22;7445;50.774;4.944;2023-06-22T21:44:37;19.20;99.90
14709;DHT22;7445;50.774;4.944;2023-06-22T21:47:03;19.10;99.90
14709;DHT22;7445;50.774;4.944;2023-06-22T21:49:29;19.10;99.90
14709;DHT22;7445;50.774;4.944;2023-06-22T21:51:54;19.10;99.90
14709;DHT22;7445;50.774;4.944;2023-06-22T21:54:22;19.10;99.90
14709;DHT22;7445;50.774;4.944;2023-06-22T21:56:47;19.10;99.90
14709;DHT22;7445;50.774;4.944;2023-06-22T21:59:13;19.10;99.90
14709;DHT22;7445;50.774;4.944;2023-06-22T22:01:38;19.20;99.90
14709;DHT22;7445;50.774;4.944;2023-06-22T22:04:04;19.10;99.90
14709;DHT22;7445;50.774;4.944;2023-06-22T22:06:32;19.10;99.90
14709;DHT22;7445;50.774;4.944;2023-06-22T22:09:02;19.20;99.90
14709;DHT22;7445;50.774;4.944;2023-06-22T22:11:29;19.10;99.90
14709;DHT22;7445;50.774;4.944;2023-06-22T22:13:55;19.10;99.90
14709;DHT22;7445;50.774;4.944;2023-06-22T22:16:21;19.00;99.90
14709;DHT22;7445;50.774;4.944;2023-06-22T22:18:46;19.00;99.90
14709;DHT22;7445;50.774;4.944;2023-06-22T22:21:13;18.90;99.90
14709;DHT22;7445;50.774;4.944;2023-06-22T22:23:39;18.90;99.90
14709;DHT22;7445;50.774;4.944;2023-06-22T22:26:05;18.90;99.90
14709;DHT22;7445;50.774;4.944;2023-06-22T22:28:30;18.80;99.90
14709;DHT22;7445;50.774;4.944;2023-06-22T22:30:56;18.70;99.90
14709;DHT22;7445;50.774;4.944;2023-06-22T22:33:22;18.60;99.90
14709;DHT22;7445;50.774;4.944;2023-06-22T22:35:48;18.60;99.90
14709;DHT22;7445;50.774;4.944;2023-06-22T22:38:13;18.50;99.90
14709;DHT22;7445;50.774;4.944;2023-06-22T22:40:39;18.50;99.90
14709;DHT22;7445;50.774;4.944;2023-06-22T22:43:04;18.50;99.90
14709;DHT22;7445;50.774;4.944;2023-06-22T22:45:30;18.30;99.90
14709;DHT22;7445;50.774;4.944;2023-06-22T22:47:56;18.30;99.90
14709;DHT22;7445;50.774;4.944;2023-06-22T22:50:21;18.30;99.90
14709;DHT22;7445;50.774;4.944;2023-06-22T22:52:47;18.20;99.90